Craigsville, WV

7:38 PM EDT on April 18, 2015 (GMT -0400)
The Family Center | | Change Station
CLOSE
Current Station
Personal Weather Station
Location: Richwood, WV
Elevation: 2192 ft
Nearby Weather Stations

Elev 2192 ft 38.22 °N, 80.53 °W | Updated 16 minutes ago

Partly Cloudy
Partly Cloudy
73.4 °F
Feels Like 77 °F
N
1.0
Wind Variable Wind from WSW
Gusts 9.0 mph

Today
High -- | Low -- °F
--% Chance of Precip.
Yesterday
High -- | Low -- °F
Precip. -- in
6:42 AM 8:01 PM
New Moon, 0% visible
Pressure 30.00 in
Visibility 10.0 miles
Clouds Scattered Clouds 11000 ft
Heat Index 77 °F
Dew Point 43 °F
Humidity 33%
Rainfall 0.00 in
Snow Depth Not available.
UV 0 out of 12
Pollen 11.30 out of 12
Air Quality Not available.
Flu Activity Sporadic
METAR KLWB 182315Z AUTO 00000KT 10SM SCT110 25/01 A3000 RMK AO2 T02500012

More Conditions Fewer Conditions

Pressure 30.00 in
Visibility 10.0 miles
Clouds Scattered Clouds 11000 ft
Heat Index 77 °F
Dew Point 43 °F
Humidity 33%
Rainfall 0.00 in
Snow Depth Not available.
UV 0 out of 12
Pollen 11.30 out of 12
Air Quality Not available.
Flu Activity Sporadic
METAR KLWB 182315Z AUTO 00000KT 10SM SCT110 25/01 A3000 RMK AO2 T02500012

More Conditions Fewer Conditions

10-Day Weather Forecast

Almanac

Astronomy

Apr. 18, 2015 Rise Set
Actual Time
Civil Twilight
Nautical Twilight
Astronomical Twilight
Moon
Length of Visible Light
Length of Day
Tomorrow will be .
, % of the Moon is Illuminated

Today's Extremes

State Highs State Lows

Community

WunderPhotos

Upload Photos

1,814,576 photos uploaded!

WunderBlogs® & News

Nearby

Air Quality

  Air Quality AQ Index Pollutant
Not available.

Snow Depth

Station Depth Elevation

Earthquake Activity

City Distance Mag. Time & Date
Minimum magnitude displayed is 2.5.

Coastal Water Temperatures

Place Temperature

Stations

Nearby Weather Stations

Station Location Temp. Windchill Dew Point Humidity Wind Precip. Elev Updated Type